Time;durP1;ratioP1;P1;durP2;ratioP2;P2;SDS_P1;SDS_P2;PMS_P1;PMS_P2;Temp;Humidity;BMP_temperature;BMP_pressure;BME280_temperature;BME280_humidity;BME280_pressure;Samples;Min_cycle;Max_cycle;Signal;HPM_P1;HPM_P2
2023/05/11 00:00:08;;;;;;;15.27;9.80;;;11.00;99.90;;;;;;4963852;28;20134;-72
2023/05/11 00:02:35;;;;;;;14.80;9.85;;;11.00;99.90;;;;;;4962164;28;20058;-72
2023/05/11 00:05:00;;;;;;;13.77;9.05;;;11.00;99.90;;;;;;4949334;28;20057;-72
2023/05/11 00:07:26;;;;;;;14.40;9.18;;;11.30;99.90;;;;;;4949550;28;20051;-72
2023/05/11 00:09:52;;;;;;;25.45;9.27;;;11.10;99.90;;;;;;4965695;28;20055;-72
2023/05/11 00:12:17;;;;;;;19.98;10.38;;;11.00;99.90;;;;;;4946886;29;20490;-72
2023/05/11 00:14:43;;;;;;;30.67;11.18;;;11.00;99.90;;;;;;4947063;29;20043;-74
2023/05/11 00:17:10;;;;;;;20.50;10.48;;;11.00;99.90;;;;;;4949247;28;20050;-72
2023/05/11 00:19:36;;;;;;;18.35;11.75;;;11.00;99.90;;;;;;4966715;28;20062;-72
2023/05/11 00:22:02;;;;;;;18.30;11.02;;;11.00;99.90;;;;;;4965534;28;20043;-72
2023/05/11 00:24:28;;;;;;;22.88;10.05;;;11.00;99.90;;;;;;4963637;28;20051;-71
2023/05/11 00:26:54;;;;;;;19.42;10.85;;;11.00;99.90;;;;;;4963551;28;20039;-73
2023/05/11 00:29:20;;;;;;;22.73;10.88;;;11.00;99.90;;;;;;4966148;28;20047;-72
2023/05/11 00:31:46;;;;;;;21.02;10.30;;;11.00;99.90;;;;;;4966966;28;20455;-73
2023/05/11 00:34:16;;;;;;;18.83;10.55;;;11.00;99.90;;;;;;4948383;28;20046;-73
2023/05/11 00:36:42;;;;;;;15.70;10.07;;;11.00;99.90;;;;;;4963689;28;20043;-73
2023/05/11 00:39:11;;;;;;;16.73;10.55;;;11.00;99.90;;;;;;4963033;28;20050;-72
2023/05/11 00:41:37;;;;;;;14.88;10.30;;;11.10;99.90;;;;;;4955258;28;20067;-73
2023/05/11 00:44:03;;;;;;;17.67;10.77;;;11.00;99.90;;;;;;4963310;28;20046;-72
2023/05/11 00:46:29;;;;;;;17.10;10.23;;;11.00;99.90;;;;;;4944091;29;20138;-72
2023/05/11 00:48:55;;;;;;;16.05;11.00;;;11.10;99.90;;;;;;4945491;29;20130;-72
2023/05/11 00:51:21;;;;;;;16.33;10.55;;;11.10;99.90;;;;;;4947073;29;20118;-72
2023/05/11 00:53:48;;;;;;;19.08;10.48;;;11.20;99.90;;;;;;4943515;29;20440;-72
2023/05/11 00:56:14;;;;;;;18.88;11.60;;;11.10;99.90;;;;;;4942405;29;20075;-72
2023/05/11 00:58:40;;;;;;;19.42;11.20;;;11.10;99.90;;;;;;4943518;29;20074;-72
2023/05/11 01:01:05;;;;;;;25.38;12.48;;;11.10;99.90;;;;;;4944181;28;20043;-72
2023/05/11 01:03:31;;;;;;;17.52;11.00;;;11.10;99.90;;;;;;4946580;29;20051;-72
2023/05/11 01:06:16;;;;;;;16.13;10.93;;;11.10;99.90;;;;;;4942375;29;20059;-73
2023/05/11 01:08:48;;;;;;;26.25;12.35;;;11.10;99.90;;;;;;4943965;29;20130;-72
2023/05/11 01:11:17;;;;;;;17.30;11.20;;;11.40;99.90;;;;;;4946795;29;20057;-73
2023/05/11 01:13:47;;;;;;;16.80;11.05;;;11.00;99.90;;;;;;4946591;29;20047;-72
2023/05/11 01:16:23;;;;;;;20.00;10.68;;;11.00;99.90;;;;;;4943236;29;20032;-72
2023/05/11 01:19:02;;;;;;;25.75;12.70;;;11.10;99.90;;;;;;4943558;29;20054;-72
2023/05/11 01:21:32;;;;;;;23.33;12.02;;;11.00;99.90;;;;;;4935769;29;20103;-72
2023/05/11 01:24:25;;;;;;;18.35;11.43;;;11.00;99.90;;;;;;4943547;29;20042;-72
2023/05/11 01:26:56;;;;;;;19.70;11.52;;;11.00;99.90;;;;;;4945044;29;20410;-71
2023/05/11 01:30:02;;;;;;;21.55;12.02;;;11.00;99.90;;;;;;4935244;29;20150;-72
2023/05/11 01:32:32;;;;;;;17.20;11.73;;;11.00;99.90;;;;;;4934616;29;20054;-72
2023/05/11 01:35:05;;;;;;;19.42;12.18;;;11.00;99.90;;;;;;4943031;29;20047;-71
2023/05/11 01:37:32;;;;;;;16.65;10.77;;;11.00;99.90;;;;;;4942946;29;20044;-72
2023/05/11 01:40:01;;;;;;;18.77;11.30;;;11.00;99.90;;;;;;4942973;29;20055;-72
2023/05/11 01:42:37;;;;;;;25.88;12.95;;;11.00;99.90;;;;;;4943590;29;20058;-72
2023/05/11 01:45:06;;;;;;;18.38;11.95;;;11.00;99.90;;;;;;4944569;29;20487;-72
2023/05/11 01:47:33;;;;;;;21.30;11.82;;;11.00;99.90;;;;;;4960069;28;20059;-72
2023/05/11 01:50:01;;;;;;;23.05;12.50;;;11.00;99.90;;;;;;4944373;29;20047;-72
2023/05/11 01:52:29;;;;;;;21.30;12.20;;;11.00;99.90;;;;;;4962373;28;20380;-72
2023/05/11 01:54:56;;;;;;;18.33;12.43;;;11.00;99.90;;;;;;4963491;28;20038;-72
2023/05/11 01:57:23;;;;;;;21.02;11.93;;;11.00;99.90;;;;;;4964674;28;20050;-72
2023/05/11 01:59:50;;;;;;;20.67;12.25;;;11.20;99.90;;;;;;4962206;28;20078;-72
2023/05/11 02:02:17;;;;;;;20.55;11.85;;;11.00;99.90;;;;;;4944847;29;20075;-72
2023/05/11 02:04:44;;;;;;;16.25;11.43;;;11.30;99.90;;;;;;4962782;28;20035;-73
2023/05/11 02:07:12;;;;;;;21.88;11.70;;;11.00;99.90;;;;;;4964956;28;20483;-72
2023/05/11 02:09:39;;;;;;;17.45;10.93;;;11.10;99.90;;;;;;4947252;28;20133;-72
2023/05/11 02:12:06;;;;;;;25.20;10.43;;;11.00;99.90;;;;;;4953248;28;20102;-72
2023/05/11 02:14:35;;;;;;;20.55;11.70;;;11.00;99.90;;;;;;4961476;28;20562;-72
2023/05/11 02:17:02;;;;;;;15.38;9.35;;;11.00;99.90;;;;;;4963115;28;20059;-72
2023/05/11 02:19:30;;;;;;;17.73;10.60;;;11.00;99.90;;;;;;4964316;28;20447;-73
2023/05/11 02:21:58;;;;;;;12.52;8.93;;;11.00;99.90;;;;;;4963988;28;20394;-72
2023/05/11 02:24:26;;;;;;;21.52;8.98;;;10.90;99.90;;;;;;4961289;28;20043;-72
2023/05/11 02:26:52;;;;;;;15.48;8.52;;;11.00;99.90;;;;;;4961368;28;20047;-72
2023/05/11 02:29:17;;;;;;;16.08;8.85;;;10.90;99.90;;;;;;4946213;28;20429;-72
2023/05/11 02:31:48;;;;;;;28.88;9.85;;;10.90;99.90;;;;;;4947016;28;20053;-72
2023/05/11 02:34:23;;;;;;;13.18;8.50;;;10.90;99.90;;;;;;4962981;28;20552;-72
2023/05/11 02:36:52;;;;;;;12.82;8.43;;;11.10;99.90;;;;;;4943674;29;20490;-72
2023/05/11 02:39:22;;;;;;;15.90;8.25;;;10.80;99.90;;;;;;4961879;28;20054;-72
2023/05/11 02:41:57;;;;;;;11.68;8.13;;;10.90;99.90;;;;;;4963821;28;20039;-72
2023/05/11 02:44:30;;;;;;;27.55;9.70;;;11.00;99.90;;;;;;4945731;28;20042;-72
2023/05/11 02:46:59;;;;;;;17.92;10.10;;;10.90;99.90;;;;;;4960956;28;20051;-72
2023/05/11 02:49:28;;;;;;;19.08;10.20;;;10.90;99.90;;;;;;4961390;28;20122;-72
2023/05/11 02:51:56;;;;;;;77.20;11.32;;;10.80;99.90;;;;;;4963869;28;20058;-72
2023/05/11 02:54:23;;;;;;;21.23;10.82;;;10.80;99.90;;;;;;4956109;28;20126;-72
2023/05/11 02:56:50;;;;;;;44.13;11.27;;;11.00;99.90;;;;;;4946068;28;20050;-72
2023/05/11 02:59:16;;;;;;;17.20;10.43;;;10.80;99.90;;;;;;4963532;28;20388;-72
2023/05/11 03:01:43;;;;;;;15.25;9.27;;;10.80;99.90;;;;;;4962537;28;20062;-72
2023/05/11 03:04:09;;;;;;;13.02;9.30;;;10.90;99.90;;;;;;4943574;29;20472;-73
2023/05/11 03:06:35;;;;;;;24.42;10.82;;;10.80;99.90;;;;;;4960701;28;20069;-72
2023/05/11 03:09:01;;;;;;;16.85;10.48;;;11.20;99.90;;;;;;4945726;28;20051;-72
2023/05/11 03:11:27;;;;;;;12.63;9.05;;;11.20;99.90;;;;;;4946079;28;20058;-72
2023/05/11 03:13:53;;;;;;;13.10;8.55;;;10.90;99.90;;;;;;4962185;28;20058;-72
2023/05/11 03:16:20;;;;;;;12.10;8.23;;;10.80;99.90;;;;;;4960566;28;20047;-71
2023/05/11 03:18:48;;;;;;;13.40;8.32;;;11.00;99.90;;;;;;4943079;29;20051;-72
2023/05/11 03:21:17;;;;;;;14.55;8.60;;;10.80;99.90;;;;;;4963182;28;20494;-72
2023/05/11 03:23:44;;;;;;;13.73;9.32;;;10.90;99.90;;;;;;4964959;28;20494;-72
2023/05/11 03:26:11;;;;;;;17.08;9.52;;;10.90;99.90;;;;;;4948461;28;20606;-72
2023/05/11 03:28:38;;;;;;;15.38;9.85;;;10.90;99.90;;;;;;4946856;29;20483;-72
2023/05/11 03:31:04;;;;;;;16.70;10.15;;;10.80;99.90;;;;;;4946847;28;20055;-72
2023/05/11 03:33:30;;;;;;;16.63;10.88;;;10.90;99.90;;;;;;4967273;28;20054;-72
2023/05/11 03:35:57;;;;;;;15.65;10.88;;;10.80;99.90;;;;;;4967134;28;20483;-72
2023/05/11 03:38:25;;;;;;;20.92;10.95;;;11.20;99.90;;;;;;4965185;28;20512;-72
2023/05/11 03:40:51;;;;;;;15.93;10.82;;;10.80;99.90;;;;;;4963715;28;20142;-73
2023/05/11 03:43:19;;;;;;;23.67;11.13;;;10.90;99.90;;;;;;4947432;28;20039;-72
2023/05/11 03:45:45;;;;;;;20.40;11.90;;;11.00;99.90;;;;;;4967324;28;20085;-73
2023/05/11 03:48:14;;;;;;;16.33;11.77;;;10.80;99.90;;;;;;4950082;28;20145;-73
2023/05/11 03:50:41;;;;;;;30.15;11.70;;;10.90;99.90;;;;;;4964640;28;20051;-71
2023/05/11 03:53:07;;;;;;;20.48;12.55;;;10.80;99.90;;;;;;4964102;28;20040;-72
2023/05/11 03:55:33;;;;;;;24.67;12.00;;;10.90;99.90;;;;;;4964514;28;20501;-72
2023/05/11 03:57:59;;;;;;;19.33;11.98;;;10.80;99.90;;;;;;4965414;28;20044;-73
2023/05/11 04:00:25;;;;;;;23.40;12.45;;;10.80;99.90;;;;;;4949667;28;20058;-72
2023/05/11 04:02:51;;;;;;;16.90;12.15;;;10.80;99.90;;;;;;4947264;28;20047;-73
2023/05/11 04:05:18;;;;;;;22.38;12.43;;;10.80;99.90;;;;;;4964184;28;20079;-73
2023/05/11 04:07:43;;;;;;;25.23;13.10;;;10.90;99.90;;;;;;4964461;28;20479;-72
2023/05/11 04:10:09;;;;;;;20.15;12.45;;;10.80;99.90;;;;;;4966780;28;20038;-72
2023/05/11 04:12:35;;;;;;;20.50;11.82;;;10.80;99.90;;;;;;4966678;28;20813;-72
2023/05/11 04:15:00;;;;;;;27.05;13.00;;;10.90;99.90;;;;;;4964527;28;20166;-72
2023/05/11 04:17:26;;;;;;;25.48;12.40;;;10.80;99.90;;;;;;4963604;28;20051;-72
2023/05/11 04:19:52;;;;;;;23.77;12.30;;;10.90;99.90;;;;;;4946635;28;20102;-73
2023/05/11 04:22:17;;;;;;;21.38;11.98;;;11.00;99.90;;;;;;4967157;28;20042;-73
2023/05/11 04:24:43;;;;;;;16.88;10.63;;;10.80;99.90;;;;;;4949561;28;20093;-72
2023/05/11 04:27:08;;;;;;;20.83;11.10;;;11.00;99.90;;;;;;4965282;28;20097;-72
2023/05/11 04:29:34;;;;;;;25.80;13.25;;;10.90;99.90;;;;;;4963844;28;20474;-73
2023/05/11 04:32:00;;;;;;;26.63;10.93;;;10.90;99.90;;;;;;4964135;28;20138;-73
2023/05/11 04:34:26;;;;;;;15.40;10.40;;;10.90;99.90;;;;;;4949002;28;20120;-73
2023/05/11 04:36:51;;;;;;;26.35;10.65;;;10.90;99.90;;;;;;4948270;28;20506;-73
2023/05/11 04:39:17;;;;;;;18.70;11.20;;;11.00;99.90;;;;;;4965348;28;20042;-72
2023/05/11 04:41:43;;;;;;;22.17;12.00;;;10.90;99.90;;;;;;4945674;29;20083;-73
2023/05/11 04:44:09;;;;;;;24.27;10.98;;;11.00;99.90;;;;;;4962959;28;20082;-73
2023/05/11 04:46:37;;;;;;;15.18;9.35;;;11.10;99.90;;;;;;4960295;28;20059;-72
2023/05/11 04:49:04;;;;;;;23.77;10.45;;;11.10;99.90;;;;;;4946991;29;20066;-73
2023/05/11 04:51:29;;;;;;;22.65;11.57;;;11.00;99.90;;;;;;4928558;29;20054;-72
2023/05/11 04:53:55;;;;;;;16.38;10.25;;;10.90;99.90;;;;;;4943909;29;20039;-73
2023/05/11 04:56:21;;;;;;;21.13;11.10;;;10.90;99.90;;;;;;4943741;29;20047;-72
2023/05/11 04:58:47;;;;;;;28.55;11.52;;;10.90;99.90;;;;;;4945977;29;20078;-72
2023/05/11 05:01:12;;;;;;;20.35;11.80;;;11.10;99.90;;;;;;4929302;29;20051;-73
2023/05/11 05:03:38;;;;;;;24.23;11.18;;;11.00;99.90;;;;;;4928806;29;20043;-73
2023/05/11 05:06:04;;;;;;;17.45;10.35;;;11.40;99.90;;;;;;4925850;29;20055;-73
2023/05/11 05:08:30;;;;;;;19.70;11.75;;;11.00;99.90;;;;;;4943454;29;20051;-73
2023/05/11 05:10:55;;;;;;;17.90;10.88;;;11.00;99.90;;;;;;4928161;29;20404;-72
2023/05/11 05:13:21;;;;;;;17.90;10.90;;;11.00;99.90;;;;;;4946383;29;20496;-73
2023/05/11 05:15:46;;;;;;;17.40;11.18;;;11.00;99.90;;;;;;4946236;29;20057;-72
2023/05/11 05:18:12;;;;;;;18.98;10.27;;;11.00;99.90;;;;;;4943592;29;20058;-73
2023/05/11 05:20:38;;;;;;;17.80;10.43;;;11.10;99.90;;;;;;4943348;29;20052;-72
2023/05/11 05:23:04;;;;;;;22.40;11.48;;;11.00;99.90;;;;;;4927534;29;20051;-72
2023/05/11 05:25:30;;;;;;;18.48;11.52;;;11.10;99.90;;;;;;4929028;29;20050;-72
2023/05/11 05:27:56;;;;;;;22.70;11.27;;;11.10;99.90;;;;;;4928827;29;20047;-72
2023/05/11 05:30:21;;;;;;;17.70;10.68;;;11.30;99.90;;;;;;4909645;29;20079;-72
2023/05/11 05:32:47;;;;;;;22.38;12.25;;;11.10;99.90;;;;;;4926062;29;20506;-73
2023/05/11 05:35:13;;;;;;;20.88;12.05;;;11.20;99.90;;;;;;4942557;29;20091;-73
2023/05/11 05:37:38;;;;;;;21.00;11.35;;;11.20;99.90;;;;;;4946161;29;20043;-72
2023/05/11 05:40:05;;;;;;;19.77;11.60;;;11.20;99.90;;;;;;4928902;29;20078;-72
2023/05/11 05:42:31;;;;;;;25.05;12.85;;;11.20;99.90;;;;;;4943532;29;20051;-73
2023/05/11 05:44:56;;;;;;;29.23;13.07;;;11.40;99.90;;;;;;4925359;29;20060;-72
2023/05/11 05:47:23;;;;;;;26.20;13.45;;;11.30;99.90;;;;;;4953150;28;20075;-72
2023/05/11 05:49:49;;;;;;;29.98;14.27;;;11.40;99.90;;;;;;4945993;29;20138;-72
2023/05/11 05:52:15;;;;;;;27.63;14.38;;;11.40;99.90;;;;;;4945782;29;20471;-72
2023/05/11 05:54:40;;;;;;;25.55;13.63;;;11.60;99.90;;;;;;4926007;29;20055;-72
2023/05/11 05:57:06;;;;;;;27.73;13.85;;;11.40;99.90;;;;;;4942657;29;20103;-73
2023/05/11 05:59:32;;;;;;;31.20;15.25;;;11.50;99.90;;;;;;4942744;29;20083;-72
2023/05/11 06:01:57;;;;;;;36.67;16.50;;;11.50;99.90;;;;;;4945309;29;20094;-73
2023/05/11 06:04:23;;;;;;;34.63;15.43;;;11.80;99.90;;;;;;4945583;29;20054;-73
2023/05/11 06:06:48;;;;;;;42.20;18.17;;;11.60;99.90;;;;;;4943764;29;20530;-73
2023/05/11 06:09:14;;;;;;;45.65;17.58;;;11.70;99.90;;;;;;4925009;29;20060;-73
2023/05/11 06:11:40;;;;;;;43.63;18.98;;;11.80;99.90;;;;;;4942356;29;20420;-72
2023/05/11 06:14:06;;;;;;;40.88;17.77;;;11.70;99.90;;;;;;4944883;29;20051;-73
2023/05/11 06:16:31;;;;;;;40.55;16.95;;;11.80;99.90;;;;;;4911200;29;20062;-72
2023/05/11 06:18:57;;;;;;;39.30;16.83;;;11.70;99.90;;;;;;4927041;29;20395;-73
2023/05/11 06:21:23;;;;;;;40.55;17.60;;;11.80;99.90;;;;;;4942082;29;20047;-72
2023/05/11 06:23:49;;;;;;;44.22;18.30;;;11.80;99.90;;;;;;4942339;29;20458;-73
2023/05/11 06:26:14;;;;;;;42.65;16.85;;;12.10;99.90;;;;;;4944592;29;20047;-73
2023/05/11 06:28:40;;;;;;;39.25;17.33;;;11.80;99.90;;;;;;4944880;29;20105;-72
2023/05/11 06:31:06;;;;;;;39.40;16.83;;;12.00;99.90;;;;;;4943913;29;20070;-73
2023/05/11 06:33:31;;;;;;;33.38;15.88;;;11.90;99.90;;;;;;4924472;29;20142;-73
2023/05/11 06:35:57;;;;;;;32.05;15.07;;;12.00;99.90;;;;;;4942034;29;20175;-73
2023/05/11 06:38:22;;;;;;;33.83;15.40;;;12.10;99.90;;;;;;4926617;29;20055;-73
2023/05/11 06:40:52;;;;;;;37.70;14.80;;;12.10;99.90;;;;;;4945116;29;20043;-73
2023/05/11 06:43:17;;;;;;;27.70;13.50;;;12.10;99.90;;;;;;4926759;29;20047;-73
2023/05/11 06:45:44;;;;;;;33.05;15.18;;;12.10;99.90;;;;;;4943304;29;20039;-72
2023/05/11 06:48:10;;;;;;;31.55;14.75;;;12.20;99.90;;;;;;4943568;29;20039;-72
2023/05/11 06:50:35;;;;;;;33.03;15.82;;;12.20;99.90;;;;;;4963359;28;20505;-73
2023/05/11 06:53:01;;;;;;;30.42;15.32;;;12.30;99.90;;;;;;4964315;28;20042;-73
2023/05/11 06:55:27;;;;;;;30.83;14.77;;;12.30;99.90;;;;;;4963834;28;20047;-72
2023/05/11 06:57:52;;;;;;;33.25;15.43;;;12.30;99.90;;;;;;4942729;28;20554;-73
2023/05/11 07:00:18;;;;;;;25.60;14.07;;;12.30;99.90;;;;;;4927557;29;20098;-73
2023/05/11 07:02:44;;;;;;;29.52;14.60;;;12.30;99.90;;;;;;4944706;28;20087;-72
2023/05/11 07:05:11;;;;;;;30.63;15.43;;;12.30;99.90;;;;;;4963798;28;20042;-73
2023/05/11 07:07:36;;;;;;;25.23;14.25;;;12.30;99.90;;;;;;4963923;28;20050;-73
2023/05/11 07:10:02;;;;;;;27.98;14.50;;;12.30;99.90;;;;;;4935321;28;20039;-72
2023/05/11 07:12:28;;;;;;;27.58;14.40;;;12.40;99.90;;;;;;4960611;28;20058;-72
2023/05/11 07:14:53;;;;;;;26.58;15.18;;;12.40;99.90;;;;;;4944253;28;20051;-72
2023/05/11 07:17:19;;;;;;;28.75;14.50;;;12.40;99.90;;;;;;4946149;28;20109;-72
2023/05/11 07:19:45;;;;;;;25.55;14.55;;;12.40;99.90;;;;;;4963545;28;20502;-72
2023/05/11 07:22:10;;;;;;;28.08;14.57;;;12.50;99.90;;;;;;4943593;28;20042;-72
2023/05/11 07:24:36;;;;;;;21.98;13.27;;;12.50;99.90;;;;;;4960718;28;20489;-72
2023/05/11 07:27:02;;;;;;;23.75;13.82;;;12.60;99.90;;;;;;4943638;28;20047;-72
2023/05/11 07:29:28;;;;;;;24.05;13.70;;;12.60;99.90;;;;;;4961299;28;20058;-72
2023/05/11 07:31:53;;;;;;;23.10;13.23;;;12.70;99.90;;;;;;4963178;28;20047;-73
2023/05/11 07:34:19;;;;;;;22.25;13.38;;;12.70;99.90;;;;;;4960970;28;20042;-72
2023/05/11 07:36:45;;;;;;;25.65;15.43;;;12.90;99.90;;;;;;4960517;28;20446;-73
2023/05/11 07:39:11;;;;;;;24.02;14.60;;;12.80;99.90;;;;;;4943325;28;20569;-73
2023/05/11 07:41:36;;;;;;;28.45;15.93;;;12.80;99.90;;;;;;4963290;28;20125;-73
2023/05/11 07:44:02;;;;;;;27.25;15.18;;;12.80;99.90;;;;;;4945928;28;20102;-73
2023/05/11 07:46:28;;;;;;;29.95;15.95;;;12.80;99.90;;;;;;4943642;28;20140;-72
2023/05/11 07:48:54;;;;;;;26.10;15.15;;;12.80;99.90;;;;;;4960052;28;20118;-72
2023/05/11 07:51:19;;;;;;;23.35;13.65;;;12.90;99.90;;;;;;4942692;29;20119;-72
2023/05/11 07:53:45;;;;;;;20.73;12.73;;;12.90;99.90;;;;;;4952039;28;20510;-73
2023/05/11 07:56:11;;;;;;;19.77;12.13;;;13.00;99.90;;;;;;4942843;29;20054;-73
2023/05/11 07:58:36;;;;;;;21.73;13.40;;;13.00;99.90;;;;;;4943964;28;20142;-73
2023/05/11 08:01:03;;;;;;;19.88;12.95;;;13.30;99.90;;;;;;4961376;28;20042;-73
2023/05/11 08:03:28;;;;;;;16.50;10.63;;;13.10;99.90;;;;;;4945358;28;20109;-73
2023/05/11 08:05:54;;;;;;;15.80;10.93;;;13.20;99.90;;;;;;4958299;28;20470;-72
2023/05/11 08:08:20;;;;;;;18.17;12.20;;;13.20;99.90;;;;;;4942743;29;20065;-72
2023/05/11 08:10:45;;;;;;;16.38;11.23;;;13.20;99.90;;;;;;4963994;28;20134;-73
2023/05/11 08:13:11;;;;;;;16.30;11.00;;;13.30;99.90;;;;;;4949506;28;20499;-73
2023/05/11 08:15:36;;;;;;;17.55;10.70;;;13.30;99.90;;;;;;4966556;28;20054;-72
2023/05/11 08:18:02;;;;;;;15.90;10.65;;;13.30;99.90;;;;;;4964366;28;20046;-72
2023/05/11 08:20:28;;;;;;;19.95;10.68;;;13.40;99.90;;;;;;4963323;28;20043;-73
2023/05/11 08:22:53;;;;;;;16.88;10.65;;;13.40;99.90;;;;;;4963652;28;20053;-72
2023/05/11 08:25:19;;;;;;;16.85;10.13;;;13.40;99.90;;;;;;4949163;28;20126;-74
2023/05/11 08:27:45;;;;;;;17.73;10.50;;;13.50;99.90;;;;;;4966472;28;20034;-73
2023/05/11 08:30:11;;;;;;;16.58;10.57;;;13.60;99.90;;;;;;4964768;28;20130;-73
2023/05/11 08:32:38;;;;;;;15.60;10.15;;;13.60;99.90;;;;;;4945917;29;20039;-74
2023/05/11 08:35:04;;;;;;;15.38;9.77;;;13.60;99.90;;;;;;4946057;29;20086;-73
2023/05/11 08:37:30;;;;;;;15.70;9.95;;;13.60;99.90;;;;;;4954892;28;20550;-73
2023/05/11 08:39:56;;;;;;;22.75;11.43;;;13.60;99.90;;;;;;4963250;28;20141;-72
2023/05/11 08:42:23;;;;;;;16.98;10.10;;;13.60;99.90;;;;;;4964665;28;20097;-72
2023/05/11 08:44:52;;;;;;;21.52;11.90;;;13.60;99.90;;;;;;4966631;28;20047;-73
2023/05/11 08:47:17;;;;;;;22.25;12.13;;;13.60;99.90;;;;;;4965744;28;20503;-72
2023/05/11 08:49:43;;;;;;;24.92;12.55;;;13.70;99.90;;;;;;4963117;28;20109;-72
2023/05/11 08:52:11;;;;;;;19.48;11.70;;;13.70;99.90;;;;;;4945695;29;20048;-72
2023/05/11 08:54:37;;;;;;;21.63;11.50;;;13.60;99.90;;;;;;4947520;28;20055;-72
2023/05/11 08:57:03;;;;;;;21.30;11.38;;;13.70;99.90;;;;;;4966014;28;20046;-73
2023/05/11 08:59:29;;;;;;;21.20;11.90;;;13.70;99.90;;;;;;4948547;28;20074;-72
2023/05/11 09:01:56;;;;;;;22.02;12.00;;;13.60;99.90;;;;;;4962640;28;20054;-72
2023/05/11 09:04:23;;;;;;;20.95;11.35;;;13.60;99.90;;;;;;4945871;29;20057;-72
2023/05/11 09:06:50;;;;;;;26.42;13.82;;;13.60;99.90;;;;;;4931505;28;20104;-73
2023/05/11 09:09:17;;;;;;;23.45;12.85;;;13.60;99.90;;;;;;4966383;28;20053;-72
2023/05/11 09:11:44;;;;;;;23.25;13.50;;;13.70;99.90;;;;;;4948329;28;20133;-72
2023/05/11 09:14:10;;;;;;;23.77;13.27;;;13.60;99.90;;;;;;4962806;28;20399;-72
2023/05/11 09:16:35;;;;;;;22.70;12.35;;;13.70;99.90;;;;;;4962496;28;20043;-73
2023/05/11 09:19:02;;;;;;;23.80;12.77;;;13.70;99.90;;;;;;4964136;28;20403;-72
2023/05/11 09:21:29;;;;;;;25.25;13.27;;;13.80;99.90;;;;;;4964418;28;20054;-73
2023/05/11 09:23:57;;;;;;;21.02;11.98;;;13.90;99.90;;;;;;4947822;28;20134;-72
2023/05/11 09:26:25;;;;;;;20.60;11.65;;;14.10;99.90;;;;;;4963019;28;20051;-72
2023/05/11 09:28:58;;;;;;;19.30;12.13;;;14.20;99.90;;;;;;4945526;29;20672;-72
2023/05/11 09:31:43;;;;;;;22.10;12.60;;;14.30;99.90;;;;;;4962486;28;20035;-72
2023/05/11 09:34:17;;;;;;;18.05;12.07;;;14.30;99.90;;;;;;4945733;28;20151;-72
2023/05/11 09:36:51;;;;;;;20.02;11.93;;;14.30;99.90;;;;;;4948377;28;20050;-73
2023/05/11 09:39:26;;;;;;;17.80;11.90;;;14.30;99.90;;;;;;4964178;28;20541;-72
2023/05/11 09:42:13;;;;;;;20.17;12.48;;;14.40;99.90;;;;;;4945131;29;20079;-73
2023/05/11 09:44:40;;;;;;;19.63;11.27;;;14.40;99.90;;;;;;4936743;29;20054;-72
2023/05/11 09:47:16;;;;;;;18.95;12.05;;;14.40;99.90;;;;;;4961919;28;20055;-72
2023/05/11 09:49:44;;;;;;;18.52;11.95;;;14.40;99.90;;;;;;4936716;29;20054;-72
2023/05/11 09:52:11;;;;;;;16.67;11.57;;;14.40;99.90;;;;;;4961998;28;20070;-71
2023/05/11 09:54:44;;;;;;;17.85;11.43;;;14.50;99.90;;;;;;4946412;28;20055;-71
2023/05/11 09:57:27;;;;;;;19.40;11.82;;;14.50;99.90;;;;;;4964969;28;20038;-72
2023/05/11 09:59:53;;;;;;;17.73;11.45;;;14.50;99.90;;;;;;4936822;29;20054;-72
2023/05/11 10:02:29;;;;;;;19.63;12.32;;;14.50;99.90;;;;;;4961730;28;20517;-72
2023/05/11 10:04:56;;;;;;;21.55;11.48;;;14.60;99.90;;;;;;4964749;28;20046;-70
2023/05/11 10:07:33;;;;;;;18.58;11.18;;;14.70;99.90;;;;;;4947560;28;20490;-70
2023/05/11 10:10:02;;;;;;;17.95;11.27;;;14.70;99.90;;;;;;4944376;28;20047;-72
2023/05/11 10:12:29;;;;;;;15.30;10.27;;;14.80;99.90;;;;;;4928922;29;20043;-72
2023/05/11 10:15:17;;;;;;;14.88;9.98;;;14.80;99.90;;;;;;4963007;28;20054;-72
2023/05/11 10:17:43;;;;;;;18.48;10.02;;;14.90;99.90;;;;;;4964148;28;20047;-72
2023/05/11 10:20:10;;;;;;;18.77;14.02;;;14.90;99.90;;;;;;4961415;28;20447;-73
2023/05/11 10:22:36;;;;;;;19.45;11.70;;;15.00;99.90;;;;;;4944028;29;20134;-72
2023/05/11 10:25:04;;;;;;;21.70;13.45;;;15.00;99.90;;;;;;4945126;28;20562;-72
2023/05/11 10:27:30;;;;;;;21.52;12.32;;;15.10;99.90;;;;;;4964449;28;20046;-71
2023/05/11 10:29:58;;;;;;;15.10;10.32;;;15.20;99.90;;;;;;4964338;28;20027;-71
2023/05/11 10:32:24;;;;;;;17.27;10.55;;;15.40;99.90;;;;;;4953098;28;20054;-72
2023/05/11 10:34:50;;;;;;;18.23;10.95;;;15.50;99.90;;;;;;4961028;28;20483;-72
2023/05/11 10:37:16;;;;;;;16.75;11.43;;;15.50;99.90;;;;;;4945193;28;20047;-71
2023/05/11 10:39:44;;;;;;;17.20;11.38;;;15.60;99.90;;;;;;4963854;28;20090;-71
2023/05/11 10:42:47;;;;;;;16.90;10.88;;;15.70;99.90;;;;;;4963995;28;20371;-72
2023/05/11 10:45:27;;;;;;;16.38;10.00;;;15.80;99.90;;;;;;4943883;28;20050;-71
2023/05/11 10:47:54;;;;;;;12.90;9.82;;;16.00;99.90;;;;;;4964040;28;20117;-71
2023/05/11 10:50:38;;;;;;;13.60;9.77;;;16.10;99.90;;;;;;4963845;28;20046;-72
2023/05/11 10:53:22;;;;;;;12.65;9.88;;;16.30;99.90;;;;;;4961052;28;20047;-72
2023/05/11 10:55:56;;;;;;;15.15;9.65;;;16.40;99.90;;;;;;4952969;28;20098;-72
2023/05/11 10:58:46;;;;;;;13.77;8.80;;;16.40;99.90;;;;;;4960752;28;20092;-72
2023/05/11 11:01:28;;;;;;;11.90;8.35;;;16.50;99.90;;;;;;4955361;28;20047;-73
2023/05/11 11:03:58;;;;;;;12.82;9.32;;;16.50;99.90;;;;;;4946301;28;20093;-72
2023/05/11 11:06:24;;;;;;;13.48;8.65;;;16.40;99.90;;;;;;4962462;28;20102;-72
2023/05/11 11:09:04;;;;;;;15.75;9.40;;;16.50;99.90;;;;;;4961965;28;20430;-73
2023/05/11 11:11:35;;;;;;;12.57;9.18;;;16.60;99.90;;;;;;4960952;28;20387;-73
2023/05/11 11:14:04;;;;;;;12.63;8.27;;;16.70;99.90;;;;;;4963700;28;20054;-72
2023/05/11 11:16:33;;;;;;;12.43;8.30;;;16.80;99.90;;;;;;4963767;28;20039;-73
2023/05/11 11:19:27;;;;;;;12.82;8.25;;;16.90;99.90;;;;;;4944204;28;20050;-72
2023/05/11 11:21:53;;;;;;;11.45;8.25;;;16.90;99.90;;;;;;4943922;28;20510;-72
2023/05/11 11:24:39;;;;;;;8.98;7.25;;;16.90;99.90;;;;;;4946026;28;20055;-72
2023/05/11 11:27:07;;;;;;;14.20;8.05;;;17.20;99.90;;;;;;4961869;28;20055;-74
2023/05/11 11:29:36;;;;;;;11.32;7.72;;;17.20;99.90;;;;;;4960479;28;20508;-73
2023/05/11 11:32:20;;;;;;;10.32;7.55;;;17.30;99.90;;;;;;4960899;28;20101;-72
2023/05/11 11:34:47;;;;;;;12.27;6.97;;;17.30;99.90;;;;;;4963313;28;20049;-72
2023/05/11 11:37:14;;;;;;;8.43;6.95;;;17.30;99.90;;;;;;4962088;28;20441;-73
2023/05/11 11:39:40;;;;;;;10.90;7.15;;;17.40;99.90;;;;;;4960256;28;20384;-74
2023/05/11 11:42:11;;;;;;;8.23;6.25;;;17.60;99.90;;;;;;4960192;28;20051;-73
2023/05/11 11:44:38;;;;;;;8.57;6.68;;;17.60;99.90;;;;;;4961322;28;20521;-73
2023/05/11 11:47:24;;;;;;;8.43;6.57;;;17.70;99.90;;;;;;4963930;28;20055;-73
2023/05/11 11:49:54;;;;;;;10.05;6.22;;;17.70;99.90;;;;;;4957079;28;20522;-72
2023/05/11 11:52:25;;;;;;;8.35;6.03;;;17.60;99.90;;;;;;4946619;28;20134;-73
2023/05/11 11:54:51;;;;;;;7.00;5.88;;;17.70;99.90;;;;;;4966866;28;20082;-73
2023/05/11 11:57:32;;;;;;;9.05;5.00;;;17.60;99.90;;;;;;4967059;28;20059;-73
2023/05/11 12:00:04;;;;;;;10.48;4.90;;;17.70;99.90;;;;;;4956890;28;20043;-72
2023/05/11 12:02:30;;;;;;;6.82;4.50;;;17.90;99.90;;;;;;4964118;28;20113;-72
2023/05/11 12:04:59;;;;;;;6.75;4.90;;;17.90;99.90;;;;;;4966577;28;20031;-73
2023/05/11 12:07:26;;;;;;;6.45;4.57;;;18.00;99.90;;;;;;4949385;28;20450;-72
2023/05/11 12:09:52;;;;;;;6.82;4.32;;;18.10;99.90;;;;;;4964603;28;20096;-72
2023/05/11 12:12:19;;;;;;;6.15;4.70;;;18.10;99.90;;;;;;4963717;28;20415;-73
2023/05/11 12:14:49;;;;;;;6.85;4.10;;;18.20;99.90;;;;;;4964153;28;20044;-73
2023/05/11 12:17:23;;;;;;;5.63;4.05;;;18.30;99.90;;;;;;4966670;28;20067;-73
2023/05/11 12:19:49;;;;;;;6.17;3.50;;;18.40;99.90;;;;;;4948764;28;20139;-73
2023/05/11 12:22:24;;;;;;;5.72;3.65;;;18.30;99.90;;;;;;4945857;29;20134;-73
2023/05/11 12:24:53;;;;;;;5.53;3.45;;;18.50;99.90;;;;;;4963641;28;20055;-73
2023/05/11 12:27:19;;;;;;;6.47;3.78;;;18.60;99.90;;;;;;4938336;29;20135;-73
2023/05/11 12:29:49;;;;;;;5.80;4.00;;;18.70;99.90;;;;;;4946067;29;20140;-72
2023/05/11 12:32:28;;;;;;;5.63;3.83;;;18.80;99.90;;;;;;4948325;28;20055;-72
2023/05/11 12:35:00;;;;;;;5.05;3.60;;;18.70;99.90;;;;;;4966338;28;20038;-73